Accueil
METAR-TAF:

METAR-TAF

Aéroports :

Noatak, Alaska, États-Unis

latitude: 67-34N, longitude: 162-59W, altitude: 27 m

Observation

Le bulletin a été fait il y a 57 minutes, à 06:56 UTC
Vent calme
Température -30°C
Humidité 75%
Pression 1016 hPa
Visibilité: 14.5 km
Ciel clair

METAR: PAWN 060656Z AUTO 00000KT 9SM CLR M30/M33 A3001 RMK AO2 SLP178 T13001328 FZRANO

Heure: 22:53 (07:53 UTC)


TAF: absent

Observations et prévisions météorologiques de plus de 4000 aéroports (messages METAR et TAF).

Les stations disponibles sont représentées par des disques jaunes et rouges sur la carte.

Passer la souris dessus pour voir le nom de la station.

Cliquer dessus pour voir les observations et prévisions météorologiques.

Pour changer de carte: cliquez sur les boutons verts avec une croix noire pour zoomer, sur le bouton vert avec un tiret pour effectuer un zoom arrière, ou sur les flèches vertes pour les cartes adjacentes.


METAR-TAF: